Time;durP1;ratioP1;P1;durP2;ratioP2;P2;SDS_P1;SDS_P2;PMS_P1;PMS_P2;Temp;Humidity;BMP_temperature;BMP_pressure;BME280_temperature;BME280_humidity;BME280_pressure;Samples;Min_cycle;Max_cycle;Signal;HPM_P1;HPM_P2
2023/10/20 00:02:15;;;;;;;13.48;11.98;;;8.50;99.90;;;;;;5072583;28;20706;-74
2023/10/20 00:04:42;;;;;;;12.98;11.65;;;8.60;99.90;;;;;;5066609;28;20641;-74
2023/10/20 00:07:09;;;;;;;13.75;12.38;;;8.50;99.90;;;;;;5069178;28;20230;-72
2023/10/20 00:09:36;;;;;;;13.80;12.50;;;8.50;99.90;;;;;;5067742;28;20210;-73
2023/10/20 00:12:04;;;;;;;13.20;11.88;;;8.50;99.90;;;;;;5073266;28;20289;-70
2023/10/20 00:14:31;;;;;;;12.38;11.20;;;8.50;99.90;;;;;;5073007;28;20584;-71
2023/10/20 00:16:59;;;;;;;12.98;11.77;;;8.50;99.90;;;;;;5072904;28;20709;-70
2023/10/20 00:19:26;;;;;;;15.55;14.13;;;8.50;99.90;;;;;;5069516;28;20202;-73
2023/10/20 00:21:54;;;;;;;13.77;12.35;;;8.60;99.90;;;;;;5072534;28;20551;-71
2023/10/20 00:24:22;;;;;;;13.95;12.15;;;8.60;99.90;;;;;;5072841;28;20216;-71
2023/10/20 00:26:49;;;;;;;13.20;11.90;;;8.60;99.90;;;;;;5070920;28;20234;-74
2023/10/20 00:29:16;;;;;;;12.45;11.15;;;8.60;99.90;;;;;;5071879;28;20203;-71
2023/10/20 00:31:43;;;;;;;12.90;10.65;;;8.60;99.90;;;;;;5072216;28;20198;-71
2023/10/20 00:34:11;;;;;;;11.43;10.32;;;8.60;99.90;;;;;;5072933;28;20199;-70
2023/10/20 00:36:38;;;;;;;12.30;11.13;;;8.60;99.90;;;;;;5073938;28;20214;-71
2023/10/20 00:39:06;;;;;;;13.63;11.55;;;8.60;99.90;;;;;;5072413;28;20290;-74
2023/10/20 00:41:35;;;;;;;14.43;13.02;;;8.60;99.90;;;;;;5066683;28;20214;-72
2023/10/20 00:44:02;;;;;;;12.25;11.00;;;8.60;99.90;;;;;;5072926;28;20614;-73
2023/10/20 00:46:29;;;;;;;13.52;11.88;;;8.60;99.90;;;;;;5070133;28;20226;-71
2023/10/20 00:48:57;;;;;;;11.95;10.68;;;8.60;99.90;;;;;;5071675;28;20688;-74
2023/10/20 00:51:25;;;;;;;11.30;10.30;;;8.60;99.90;;;;;;5072490;28;20294;-74
2023/10/20 00:53:53;;;;;;;10.75;9.75;;;8.50;99.90;;;;;;5072665;28;20285;-73
2023/10/20 00:56:19;;;;;;;12.70;11.40;;;8.60;99.90;;;;;;5064621;28;20226;-74
2023/10/20 00:58:47;;;;;;;12.82;10.88;;;8.50;99.90;;;;;;5072059;28;20602;-71
2023/10/20 01:01:15;;;;;;;13.15;11.75;;;8.50;99.90;;;;;;5072105;28;20236;-75
2023/10/20 01:03:42;;;;;;;10.25;9.05;;;8.50;99.90;;;;;;5072339;28;20580;-70
2023/10/20 01:06:10;;;;;;;12.48;11.18;;;8.50;99.90;;;;;;5071922;28;20290;-72
2023/10/20 01:08:39;;;;;;;13.07;11.70;;;8.50;99.90;;;;;;5071930;28;20191;-70
2023/10/20 01:11:06;;;;;;;11.45;9.63;;;8.50;99.90;;;;;;5074665;28;20210;-71
2023/10/20 01:13:33;;;;;;;12.98;11.77;;;8.60;99.90;;;;;;5075667;28;20202;-72
2023/10/20 01:16:00;;;;;;;10.88;9.80;;;8.50;99.90;;;;;;5076572;28;20627;-71
2023/10/20 01:18:27;;;;;;;12.35;11.18;;;8.50;99.90;;;;;;5072964;28;20306;-73
2023/10/20 01:20:55;;;;;;;11.10;10.10;;;8.50;99.90;;;;;;5071269;28;20297;-72
2023/10/20 01:23:21;;;;;;;11.60;10.50;;;8.50;99.90;;;;;;5075326;28;20212;-73
2023/10/20 01:25:50;;;;;;;9.68;8.73;;;8.50;99.90;;;;;;5070102;28;20203;-71
2023/10/20 01:28:19;;;;;;;10.40;9.10;;;8.40;99.90;;;;;;5075399;28;20226;-71
2023/10/20 01:30:46;;;;;;;10.95;9.77;;;8.50;99.90;;;;;;5075679;28;20709;-71
2023/10/20 01:33:12;;;;;;;9.98;8.90;;;8.50;99.90;;;;;;5076208;28;20207;-74
2023/10/20 01:35:39;;;;;;;11.20;9.15;;;8.50;99.90;;;;;;5075771;28;20203;-72
2023/10/20 01:38:06;;;;;;;10.57;9.57;;;8.50;99.90;;;;;;5074973;28;20693;-71
2023/10/20 01:40:33;;;;;;;10.50;8.50;;;8.50;99.90;;;;;;5071560;28;20218;-72
2023/10/20 01:43:01;;;;;;;9.02;7.55;;;8.50;99.90;;;;;;5075852;28;20748;-74
2023/10/20 01:45:28;;;;;;;9.73;8.82;;;8.40;99.90;;;;;;5075643;28;20717;-72
2023/10/20 01:47:55;;;;;;;10.38;9.35;;;8.40;99.90;;;;;;5075039;28;20337;-73
2023/10/20 01:50:24;;;;;;;9.27;8.38;;;8.40;99.90;;;;;;5075700;28;20203;-73
2023/10/20 01:52:51;;;;;;;9.20;8.30;;;8.40;99.90;;;;;;5075041;28;20231;-72
2023/10/20 01:55:18;;;;;;;9.32;8.43;;;8.50;99.90;;;;;;5074513;28;20574;-75
2023/10/20 01:57:45;;;;;;;9.00;8.10;;;8.50;99.90;;;;;;5074662;28;20253;-71
2023/10/20 02:00:14;;;;;;;9.07;8.20;;;8.50;99.90;;;;;;5075548;28;20199;-70
2023/10/20 02:02:41;;;;;;;8.50;7.80;;;8.50;99.90;;;;;;5075590;28;20740;-70
2023/10/20 02:05:09;;;;;;;7.80;7.00;;;8.50;99.90;;;;;;5075840;28;20255;-73
2023/10/20 02:07:36;;;;;;;8.00;7.20;;;8.50;99.90;;;;;;5075442;28;20249;-73
2023/10/20 02:10:06;;;;;;;7.95;7.15;;;8.50;99.90;;;;;;5075467;28;20213;-73
2023/10/20 02:12:34;;;;;;;7.40;6.57;;;8.50;99.90;;;;;;5075441;28;20210;-74
2023/10/20 02:15:01;;;;;;;7.28;6.57;;;8.50;99.90;;;;;;5074918;28;20286;-75
2023/10/20 02:17:29;;;;;;;6.05;5.55;;;8.50;99.90;;;;;;5075503;28;20222;-71
2023/10/20 02:19:56;;;;;;;7.07;6.38;;;8.60;99.90;;;;;;5073610;28;20199;-73
2023/10/20 02:22:25;;;;;;;8.10;7.10;;;8.50;99.90;;;;;;5072660;28;20651;-74
2023/10/20 02:24:52;;;;;;;7.35;6.65;;;8.50;99.90;;;;;;5075004;28;21901;-70
2023/10/20 02:27:20;;;;;;;8.10;7.28;;;8.50;99.90;;;;;;5074950;28;20226;-72
2023/10/20 02:29:46;;;;;;;7.60;6.93;;;8.60;99.90;;;;;;5074228;28;20205;-72
2023/10/20 02:32:13;;;;;;;7.10;6.40;;;8.60;99.90;;;;;;5074611;28;20209;-74
2023/10/20 02:34:41;;;;;;;6.80;6.20;;;8.60;99.90;;;;;;5074950;28;20217;-73
2023/10/20 02:37:11;;;;;;;7.57;6.78;;;8.60;99.90;;;;;;5072872;28;20315;-73
2023/10/20 02:39:38;;;;;;;6.43;5.82;;;8.60;99.90;;;;;;5069866;28;20199;-73
2023/10/20 02:42:05;;;;;;;6.28;5.78;;;8.70;99.90;;;;;;5074653;28;20217;-74
2023/10/20 02:44:32;;;;;;;6.20;5.60;;;8.60;99.90;;;;;;5074752;28;20711;-70
2023/10/20 02:46:59;;;;;;;6.10;5.65;;;8.60;99.90;;;;;;5069770;28;20312;-72
2023/10/20 02:49:26;;;;;;;5.82;5.13;;;8.60;99.90;;;;;;5073141;28;20203;-72
2023/10/20 02:51:55;;;;;;;5.78;4.95;;;8.60;99.90;;;;;;5074838;28;20199;-73
2023/10/20 02:54:22;;;;;;;5.15;4.75;;;8.60;99.90;;;;;;5073223;28;20231;-73
2023/10/20 02:56:48;;;;;;;5.35;4.93;;;8.60;99.90;;;;;;5074501;28;20780;-71
2023/10/20 02:59:15;;;;;;;5.20;4.80;;;8.60;99.90;;;;;;5067293;28;20258;-73
2023/10/20 03:01:43;;;;;;;4.80;4.40;;;8.60;99.90;;;;;;5074629;28;20226;-70
2023/10/20 03:04:10;;;;;;;4.68;4.25;;;8.60;99.90;;;;;;5074300;28;20617;-76
2023/10/20 03:06:37;;;;;;;4.60;4.20;;;8.60;99.90;;;;;;5072593;28;20233;-72
2023/10/20 03:09:05;;;;;;;3.78;3.50;;;8.60;99.90;;;;;;5073485;28;20202;-72
2023/10/20 03:11:32;;;;;;;4.25;3.90;;;8.60;99.90;;;;;;5073353;28;20285;-73
2023/10/20 03:13:59;;;;;;;3.92;3.63;;;8.60;99.90;;;;;;5071274;28;20208;-73
2023/10/20 03:16:26;;;;;;;3.92;3.58;;;8.60;99.90;;;;;;5073914;28;20330;-72
2023/10/20 03:18:53;;;;;;;4.32;3.92;;;8.70;99.90;;;;;;5073786;28;20203;-72
2023/10/20 03:21:21;;;;;;;4.95;4.55;;;8.70;99.90;;;;;;5073420;28;20213;-70
2023/10/20 03:23:48;;;;;;;4.55;4.20;;;8.70;99.90;;;;;;5067785;28;20195;-71
2023/10/20 03:26:16;;;;;;;3.55;3.25;;;8.70;99.90;;;;;;5073709;28;20207;-71
2023/10/20 03:28:44;;;;;;;5.55;3.60;;;8.70;99.90;;;;;;5072531;28;20313;-72
2023/10/20 03:31:11;;;;;;;4.18;3.78;;;8.70;99.90;;;;;;5073879;28;20584;-74
2023/10/20 03:33:38;;;;;;;3.58;3.28;;;8.70;99.90;;;;;;5069207;28;20202;-71
2023/10/20 03:36:05;;;;;;;3.50;3.20;;;8.70;99.90;;;;;;5074169;28;20215;-72
2023/10/20 03:38:32;;;;;;;3.33;3.13;;;8.70;99.90;;;;;;5072999;28;21177;-74
2023/10/20 03:41:07;;;;;;;4.05;3.65;;;8.70;99.90;;;;;;5071467;28;20618;-74
2023/10/20 03:43:35;;;;;;;3.88;3.53;;;8.70;99.90;;;;;;5072993;28;20209;-73
2023/10/20 03:46:04;;;;;;;2.97;2.78;;;8.80;99.90;;;;;;5067712;28;20206;-72
2023/10/20 03:48:33;;;;;;;2.97;2.78;;;8.80;99.90;;;;;;5072442;28;20219;-72
2023/10/20 03:51:00;;;;;;;2.90;2.70;;;8.80;99.90;;;;;;5071567;28;20194;-71
2023/10/20 03:53:29;;;;;;;2.85;2.65;;;8.80;99.90;;;;;;5073302;28;20289;-73
2023/10/20 03:56:00;;;;;;;3.05;2.78;;;8.80;99.90;;;;;;5071311;28;20207;-71
2023/10/20 03:58:28;;;;;;;2.45;2.25;;;8.80;99.90;;;;;;5071835;28;20279;-74
2023/10/20 04:00:58;;;;;;;2.80;2.33;;;8.80;99.90;;;;;;5073042;28;20203;-71
2023/10/20 04:03:26;;;;;;;2.67;2.47;;;8.80;99.90;;;;;;5067948;28;20207;-74
2023/10/20 04:05:53;;;;;;;2.55;2.35;;;8.80;99.90;;;;;;5073205;28;20195;-72
2023/10/20 04:08:20;;;;;;;3.00;2.58;;;8.80;99.90;;;;;;5072438;28;20230;-74
2023/10/20 04:10:47;;;;;;;3.38;3.08;;;8.80;99.90;;;;;;5073351;28;20199;-72
2023/10/20 04:13:14;;;;;;;2.88;2.67;;;8.80;99.90;;;;;;5072974;28;20290;-74
2023/10/20 04:15:42;;;;;;;2.70;2.50;;;8.90;99.90;;;;;;5073140;28;20220;-74
2023/10/20 04:18:10;;;;;;;2.55;2.35;;;8.90;99.90;;;;;;5071926;28;20226;-72
2023/10/20 04:20:40;;;;;;;2.20;2.00;;;8.90;99.90;;;;;;5070569;28;20282;-75
2023/10/20 04:23:08;;;;;;;2.53;2.33;;;8.80;99.90;;;;;;5072890;28;20592;-74
2023/10/20 04:25:44;;;;;;;2.38;2.15;;;8.90;99.90;;;;;;5072724;28;20203;-71
2023/10/20 04:28:14;;;;;;;3.20;2.00;;;8.90;99.90;;;;;;5071927;28;20242;-72
2023/10/20 04:41:56;;;;;;;2.40;2.20;;;8.90;99.90;;;;;;5031708;28;20202;-72
2023/10/20 04:58:13;;;;;;;1.70;1.60;;;8.90;99.90;;;;;;5070963;28;20297;-72
2023/10/20 05:00:41;;;;;;;1.58;1.48;;;8.90;99.90;;;;;;5069786;28;20213;-73
2023/10/20 05:03:22;;;;;;;2.00;1.70;;;8.80;99.90;;;;;;5072664;28;21527;-72
2023/10/20 05:05:58;;;;;;;2.15;1.70;;;8.80;99.90;;;;;;5064713;28;20230;-75
2023/10/20 05:08:25;;;;;;;1.50;1.40;;;8.80;99.90;;;;;;5053350;28;20267;-73
2023/10/20 05:10:54;;;;;;;2.17;2.00;;;8.90;99.90;;;;;;5067103;28;20267;-71
2023/10/20 05:13:22;;;;;;;1.70;1.60;;;8.80;99.90;;;;;;5071717;28;20209;-75
2023/10/20 05:15:50;;;;;;;2.47;2.28;;;8.80;99.90;;;;;;5072745;28;20207;-73
2023/10/20 05:18:17;;;;;;;3.88;1.77;;;8.80;99.90;;;;;;5068613;28;20226;-72
2023/10/20 05:20:45;;;;;;;2.10;1.88;;;8.80;99.90;;;;;;5072049;28;20640;-73
2023/10/20 05:23:15;;;;;;;1.40;1.30;;;8.80;99.90;;;;;;5071922;28;20210;-74
2023/10/20 05:25:48;;;;;;;2.40;1.75;;;8.80;99.90;;;;;;5072296;28;20211;-72
2023/10/20 05:28:16;;;;;;;1.65;1.52;;;8.80;99.90;;;;;;5070358;28;20306;-75
2023/10/20 05:30:44;;;;;;;2.60;2.38;;;8.80;99.90;;;;;;5071922;28;20286;-74
2023/10/20 05:33:12;;;;;;;1.60;1.50;;;8.80;99.90;;;;;;5071836;28;20290;-73
2023/10/20 05:35:40;;;;;;;1.75;1.65;;;8.70;99.90;;;;;;5071577;28;20210;-75
2023/10/20 05:38:07;;;;;;;1.83;1.65;;;8.70;99.90;;;;;;5070787;28;20226;-75
2023/10/20 05:40:36;;;;;;;1.85;1.75;;;8.70;99.90;;;;;;5071931;28;20242;-73
2023/10/20 05:43:05;;;;;;;2.17;1.33;;;8.70;99.90;;;;;;5072062;28;20199;-73
2023/10/20 05:45:37;;;;;;;1.70;1.60;;;8.60;99.90;;;;;;5071065;28;20214;-74
2023/10/20 05:48:06;;;;;;;3.53;1.55;;;8.60;99.90;;;;;;5070994;28;20225;-71
2023/10/20 05:50:35;;;;;;;1.73;1.33;;;8.60;99.90;;;;;;5071814;28;20207;-75
2023/10/20 05:53:03;;;;;;;1.70;1.60;;;8.60;99.90;;;;;;5066651;28;20209;-75
2023/10/20 05:55:29;;;;;;;1.75;1.65;;;8.50;99.90;;;;;;5071844;28;20207;-73
2023/10/20 05:57:58;;;;;;;1.60;1.50;;;8.50;99.90;;;;;;5070450;28;20219;-71
2023/10/20 06:00:24;;;;;;;2.72;1.70;;;8.50;99.90;;;;;;5075458;28;20216;-73
2023/10/20 06:02:52;;;;;;;2.15;1.77;;;8.50;99.90;;;;;;5075419;28;20199;-71
2023/10/20 06:05:18;;;;;;;2.45;2.20;;;8.60;99.90;;;;;;5067652;28;20310;-75
2023/10/20 06:07:47;;;;;;;1.80;1.60;;;8.60;99.90;;;;;;5074264;28;20268;-74
2023/10/20 06:10:21;;;;;;;2.25;2.05;;;8.60;99.90;;;;;;5074894;28;20851;-75
2023/10/20 06:12:50;;;;;;;1.88;1.70;;;8.60;99.90;;;;;;5055916;28;20214;-72
2023/10/20 06:15:19;;;;;;;2.63;2.00;;;8.50;99.90;;;;;;5071015;28;20207;-72
2023/10/20 06:17:46;;;;;;;2.22;2.03;;;8.50;99.90;;;;;;5074523;28;20686;-74
2023/10/20 06:20:13;;;;;;;3.33;2.92;;;8.40;99.90;;;;;;5065265;28;20285;-74
2023/10/20 06:22:41;;;;;;;2.25;1.45;;;8.50;99.90;;;;;;5075194;28;20203;-72
2023/10/20 06:25:12;;;;;;;2.30;2.10;;;8.40;99.90;;;;;;5074847;28;20213;-75
2023/10/20 06:27:40;;;;;;;2.85;2.65;;;8.40;99.90;;;;;;5073878;28;20219;-75
2023/10/20 06:30:14;;;;;;;6.97;1.90;;;8.40;99.90;;;;;;5072490;28;20211;-72
2023/10/20 06:32:45;;;;;;;2.58;2.25;;;8.40;99.90;;;;;;5075408;28;20198;-73
2023/10/20 06:35:13;;;;;;;3.25;2.83;;;8.40;99.90;;;;;;5074691;28;20296;-71
2023/10/20 06:37:46;;;;;;;2.00;1.80;;;8.40;99.90;;;;;;5064505;28;20697;-71
2023/10/20 06:40:16;;;;;;;3.08;2.40;;;8.30;99.90;;;;;;5073944;28;20215;-72
2023/10/20 06:42:44;;;;;;;3.08;2.38;;;8.30;99.90;;;;;;5074548;28;20668;-74
2023/10/20 06:45:11;;;;;;;2.72;2.42;;;8.20;99.90;;;;;;5073725;28;20207;-72
2023/10/20 06:47:40;;;;;;;3.35;3.05;;;8.20;99.90;;;;;;5073675;28;20721;-74
2023/10/20 06:50:10;;;;;;;3.70;2.80;;;8.20;99.90;;;;;;5074108;28;20268;-74
2023/10/20 06:52:37;;;;;;;3.45;2.83;;;8.20;99.90;;;;;;5073438;28;20261;-70
2023/10/20 06:55:04;;;;;;;2.85;2.40;;;8.20;99.90;;;;;;5073243;28;20912;-70
2023/10/20 06:57:31;;;;;;;2.67;2.47;;;8.20;99.90;;;;;;5072803;28;20748;-68
2023/10/20 06:59:58;;;;;;;4.00;2.80;;;8.20;99.90;;;;;;5073503;28;20653;-73
2023/10/20 07:02:25;;;;;;;3.17;2.80;;;8.20;99.90;;;;;;5066133;28;20574;-74
2023/10/20 07:04:52;;;;;;;9.00;3.35;;;8.20;99.90;;;;;;5071322;28;20203;-75
2023/10/20 07:07:20;;;;;;;2.80;2.60;;;8.20;99.90;;;;;;5070896;28;20226;-74
2023/10/20 07:09:47;;;;;;;5.97;2.50;;;8.20;99.90;;;;;;5072656;28;20261;-73
2023/10/20 07:12:15;;;;;;;3.80;3.25;;;8.20;99.90;;;;;;5070533;28;20245;-73
2023/10/20 07:14:43;;;;;;;2.70;2.50;;;8.20;99.90;;;;;;5065731;28;20213;-73
2023/10/20 07:17:11;;;;;;;2.83;2.55;;;8.20;99.90;;;;;;5074087;28;20219;-71
2023/10/20 07:19:38;;;;;;;5.20;3.08;;;8.20;99.90;;;;;;5072694;28;20211;-72
2023/10/20 07:22:05;;;;;;;3.25;2.95;;;8.20;99.90;;;;;;5073756;28;20199;-72
2023/10/20 07:24:34;;;;;;;3.15;2.33;;;8.20;99.90;;;;;;5074437;28;20850;-71
2023/10/20 07:27:02;;;;;;;3.08;2.78;;;8.20;99.90;;;;;;5071746;28;20306;-72
2023/10/20 07:29:30;;;;;;;5.10;2.72;;;8.20;99.90;;;;;;5073165;28;20218;-71
2023/10/20 07:31:58;;;;;;;3.80;2.35;;;8.10;99.90;;;;;;5076498;28;20238;-70
2023/10/20 07:34:25;;;;;;;3.65;3.35;;;8.20;99.90;;;;;;5073595;28;20210;-74
2023/10/20 07:36:52;;;;;;;3.58;3.28;;;8.20;99.90;;;;;;5073237;28;20224;-73
2023/10/20 07:39:19;;;;;;;3.92;2.60;;;8.20;99.90;;;;;;5078312;28;20262;-73
2023/10/20 07:41:47;;;;;;;2.60;2.33;;;8.10;99.90;;;;;;5071252;28;20202;-71
2023/10/20 07:44:18;;;;;;;2.85;2.58;;;8.10;99.90;;;;;;5071086;28;20582;-73
2023/10/20 07:46:44;;;;;;;2.92;2.35;;;8.10;99.90;;;;;;5068726;28;20334;-73
2023/10/20 07:49:12;;;;;;;2.25;2.05;;;8.10;99.90;;;;;;5069244;28;20740;-70
2023/10/20 07:51:40;;;;;;;3.10;2.20;;;8.10;99.90;;;;;;5072363;28;20211;-71
2023/10/20 07:54:08;;;;;;;2.45;1.98;;;8.10;99.90;;;;;;5073181;28;20199;-71
2023/10/20 07:56:35;;;;;;;2.95;2.60;;;8.20;99.90;;;;;;5072795;28;20241;-73
2023/10/20 07:59:03;;;;;;;7.25;3.70;;;8.10;99.90;;;;;;5072830;28;20345;-70
2023/10/20 08:01:31;;;;;;;3.38;2.88;;;8.20;99.90;;;;;;5072510;28;20247;-73
2023/10/20 08:03:57;;;;;;;3.28;2.92;;;8.10;99.90;;;;;;5074591;28;20199;-74
2023/10/20 08:06:24;;;;;;;5.38;3.15;;;8.00;99.90;;;;;;5071142;28;20199;-71
2023/10/20 08:08:52;;;;;;;3.28;2.90;;;7.90;99.90;;;;;;5072099;28;20215;-69
2023/10/20 08:11:20;;;;;;;3.75;3.28;;;7.90;99.90;;;;;;5073267;28;20221;-72
2023/10/20 08:13:50;;;;;;;3.20;2.80;;;7.90;99.90;;;;;;5072432;28;20692;-73
2023/10/20 08:16:21;;;;;;;3.20;2.90;;;7.90;99.90;;;;;;5072394;28;20207;-73
2023/10/20 08:18:48;;;;;;;3.22;2.92;;;7.80;99.90;;;;;;5072616;28;20674;-74
2023/10/20 08:21:16;;;;;;;2.67;2.38;;;7.80;99.90;;;;;;5071832;28;20595;-73
2023/10/20 08:23:43;;;;;;;4.43;3.00;;;7.80;99.90;;;;;;5064506;28;20229;-73
2023/10/20 08:26:15;;;;;;;2.85;2.55;;;7.80;99.90;;;;;;5072532;28;20202;-73
2023/10/20 08:28:42;;;;;;;3.95;2.85;;;7.70;99.90;;;;;;5071989;28;20230;-72
2023/10/20 08:31:13;;;;;;;3.05;2.55;;;7.60;99.90;;;;;;5071563;28;20301;-73
2023/10/20 08:33:41;;;;;;;2.78;2.20;;;7.60;99.90;;;;;;5072122;28;20195;-73
2023/10/20 08:36:12;;;;;;;4.32;3.65;;;7.60;99.90;;;;;;5072295;28;20648;-73
2023/10/20 08:38:41;;;;;;;3.90;3.50;;;7.50;99.90;;;;;;5071742;28;20205;-72
2023/10/20 08:41:13;;;;;;;4.20;2.88;;;7.50;99.90;;;;;;5071874;28;20579;-70
2023/10/20 08:43:41;;;;;;;3.00;2.70;;;7.50;99.90;;;;;;5072324;28;20541;-73
2023/10/20 08:46:09;;;;;;;5.60;3.00;;;7.50;99.90;;;;;;5072648;28;20198;-73
2023/10/20 08:48:38;;;;;;;2.83;2.53;;;7.60;99.90;;;;;;5065726;28;20222;-71
2023/10/20 08:51:08;;;;;;;2.58;2.38;;;7.40;99.90;;;;;;5072175;28;20206;-73
2023/10/20 08:53:36;;;;;;;3.05;2.85;;;7.40;99.90;;;;;;5071920;28;20206;-75
2023/10/20 08:56:05;;;;;;;2.53;2.33;;;7.50;99.90;;;;;;5071683;28;20700;-72
2023/10/20 08:58:32;;;;;;;2.88;2.17;;;7.40;99.90;;;;;;5072031;28;20283;-71
2023/10/20 09:00:59;;;;;;;3.63;3.03;;;7.40;99.90;;;;;;5072394;28;20619;-73
2023/10/20 09:03:27;;;;;;;3.10;2.25;;;7.40;99.90;;;;;;5072073;28;20297;-70
2023/10/20 09:06:02;;;;;;;3.03;2.80;;;7.30;99.90;;;;;;5071775;28;20309;-72
2023/10/20 09:08:30;;;;;;;5.22;3.22;;;7.30;99.90;;;;;;5070842;28;20749;-73
2023/10/20 09:10:57;;;;;;;3.03;2.72;;;7.30;99.90;;;;;;5072399;28;20661;-72
2023/10/20 09:13:30;;;;;;;3.47;2.35;;;7.30;99.90;;;;;;5071144;28;20634;-71
2023/10/20 09:15:57;;;;;;;7.68;3.15;;;7.30;99.90;;;;;;5071915;28;20207;-71
2023/10/20 09:18:25;;;;;;;2.92;2.65;;;7.30;99.90;;;;;;5070980;28;20344;-73
2023/10/20 09:20:52;;;;;;;2.88;2.60;;;7.30;99.90;;;;;;5069124;28;20613;-74
2023/10/20 09:23:20;;;;;;;3.17;2.88;;;7.30;99.90;;;;;;5072457;28;20230;-73
2023/10/20 09:25:48;;;;;;;3.05;2.50;;;7.30;99.90;;;;;;5071873;28;20293;-71
2023/10/20 09:28:15;;;;;;;2.30;2.08;;;7.30;99.90;;;;;;5071793;28;20307;-73
2023/10/20 09:30:42;;;;;;;3.65;2.85;;;7.30;99.90;;;;;;5069117;28;20301;-72
2023/10/20 09:33:11;;;;;;;3.15;2.85;;;7.30;99.90;;;;;;5066144;28;20293;-71
2023/10/20 09:35:40;;;;;;;2.60;2.40;;;7.30;99.90;;;;;;5077867;28;20667;-73
2023/10/20 09:38:10;;;;;;;4.43;3.00;;;7.30;99.90;;;;;;5075364;28;20225;-72
2023/10/20 09:40:40;;;;;;;4.15;3.08;;;7.30;99.90;;;;;;5079053;28;20628;-72
2023/10/20 09:43:15;;;;;;;2.60;2.33;;;7.40;99.90;;;;;;5076091;28;20210;-72
2023/10/20 09:45:44;;;;;;;2.55;2.10;;;7.40;99.90;;;;;;5075830;28;20235;-71
2023/10/20 09:48:18;;;;;;;3.05;2.20;;;7.40;99.90;;;;;;5075941;28;20222;-74
2023/10/20 09:50:47;;;;;;;3.63;3.15;;;7.40;99.90;;;;;;5072314;28;20222;-74
2023/10/20 09:53:15;;;;;;;3.17;2.85;;;7.50;99.90;;;;;;5075843;28;20225;-75
2023/10/20 09:55:42;;;;;;;4.10;2.80;;;7.50;99.90;;;;;;5068519;28;20212;-73
2023/10/20 09:58:11;;;;;;;2.75;2.50;;;7.40;99.90;;;;;;5070597;28;20411;-72
2023/10/20 10:00:42;;;;;;;3.35;2.75;;;7.40;99.90;;;;;;5075638;28;20575;-72
2023/10/20 10:03:12;;;;;;;3.78;2.50;;;7.50;99.90;;;;;;5073361;28;20200;-76
2023/10/20 10:05:41;;;;;;;2.78;2.50;;;7.20;99.90;;;;;;5074261;28;20218;-73
2023/10/20 10:08:10;;;;;;;3.20;2.90;;;7.30;99.90;;;;;;5074272;28;20249;-73
2023/10/20 10:10:37;;;;;;;2.20;2.00;;;7.20;99.90;;;;;;5071988;28;20223;-76
2023/10/20 10:13:05;;;;;;;6.28;2.90;;;7.30;99.90;;;;;;5074255;28;20205;-74
2023/10/20 10:15:38;;;;;;;4.35;2.95;;;7.30;99.90;;;;;;5074775;28;20652;-72
2023/10/20 10:18:11;;;;;;;3.20;2.78;;;7.30;99.90;;;;;;5073966;28;20655;-71
2023/10/20 10:20:47;;;;;;;5.15;3.75;;;7.40;99.90;;;;;;5073517;28;20193;-72
2023/10/20 10:23:15;;;;;;;4.93;2.40;;;7.40;99.90;;;;;;5071098;28;20234;-74
2023/10/20 10:25:44;;;;;;;4.82;3.13;;;7.40;99.90;;;;;;5075037;28;20672;-72
2023/10/20 10:28:12;;;;;;;3.40;2.88;;;7.40;99.90;;;;;;5073603;28;20273;-74
2023/10/20 10:30:42;;;;;;;4.05;3.08;;;7.40;99.90;;;;;;5074070;28;20225;-75
2023/10/20 10:33:12;;;;;;;5.40;3.42;;;7.30;99.90;;;;;;5074763;28;20206;-73
2023/10/20 10:35:40;;;;;;;2.63;2.08;;;7.30;99.90;;;;;;5071464;28;20204;-74
2023/10/20 10:38:18;;;;;;;3.50;3.10;;;7.30;99.90;;;;;;5068876;28;20585;-72
2023/10/20 10:40:46;;;;;;;3.42;3.13;;;7.30;99.90;;;;;;5073348;28;20212;-71
2023/10/20 10:43:15;;;;;;;2.50;2.30;;;7.20;99.90;;;;;;5072760;28;20644;-73
2023/10/20 10:45:43;;;;;;;2.67;2.42;;;7.30;99.90;;;;;;5074299;28;20699;-73
2023/10/20 10:48:11;;;;;;;3.10;2.72;;;7.30;99.90;;;;;;5071630;28;20247;-73
2023/10/20 10:50:40;;;;;;;3.42;2.58;;;7.20;99.90;;;;;;5073145;28;20230;-73
2023/10/20 10:53:07;;;;;;;4.97;3.45;;;7.10;99.90;;;;;;5074180;28;20698;-75
2023/10/20 10:55:35;;;;;;;4.78;2.90;;;7.10;99.90;;;;;;5071561;28;20220;-74
2023/10/20 10:58:03;;;;;;;3.05;2.50;;;7.10;99.90;;;;;;5073240;28;20283;-73
2023/10/20 11:00:31;;;;;;;2.67;2.10;;;7.20;99.90;;;;;;5074643;28;20284;-72
2023/10/20 11:02:59;;;;;;;3.20;2.90;;;7.20;99.90;;;;;;5074228;28;20308;-74
2023/10/20 11:05:27;;;;;;;4.45;3.35;;;7.20;99.90;;;;;;5074035;28;20658;-72
2023/10/20 11:08:02;;;;;;;3.55;2.60;;;7.10;99.90;;;;;;5073065;28;20221;-74
2023/10/20 11:10:30;;;;;;;2.75;2.33;;;7.20;99.90;;;;;;5073916;28;20222;-72
2023/10/20 11:12:58;;;;;;;4.30;3.20;;;7.10;99.90;;;;;;5073455;28;20281;-74
2023/10/20 11:15:30;;;;;;;3.40;2.35;;;7.20;99.90;;;;;;5073096;28;20571;-73
2023/10/20 11:17:58;;;;;;;3.15;2.35;;;7.20;99.90;;;;;;5072867;28;20223;-74
2023/10/20 11:20:26;;;;;;;3.33;3.03;;;7.10;99.90;;;;;;5073473;28;20205;-75
2023/10/20 11:22:56;;;;;;;3.15;2.85;;;7.10;99.90;;;;;;5078377;28;20284;-73
2023/10/20 11:25:24;;;;;;;3.13;2.85;;;7.20;99.90;;;;;;5073243;28;20282;-70
2023/10/20 11:27:55;;;;;;;4.38;3.38;;;7.10;99.90;;;;;;5073372;28;20297;-74
2023/10/20 11:30:26;;;;;;;2.85;2.65;;;7.10;99.90;;;;;;5065897;28;20305;-73
2023/10/20 11:32:54;;;;;;;4.60;2.88;;;7.10;99.90;;;;;;5071100;28;20200;-74
2023/10/20 11:35:24;;;;;;;3.90;3.10;;;7.10;99.90;;;;;;5072706;28;20194;-71
2023/10/20 11:37:51;;;;;;;3.72;3.15;;;7.10;99.90;;;;;;5070957;28;20226;-73
2023/10/20 11:40:19;;;;;;;3.55;3.15;;;7.10;99.90;;;;;;5072297;28;20202;-71
2023/10/20 11:42:46;;;;;;;4.55;2.92;;;7.10;99.90;;;;;;5073542;28;20611;-72
2023/10/20 11:45:14;;;;;;;3.58;2.42;;;7.10;99.90;;;;;;5069401;28;20294;-73
2023/10/20 11:47:42;;;;;;;3.00;2.70;;;7.10;99.90;;;;;;5072986;28;20720;-74
2023/10/20 11:50:10;;;;;;;4.07;3.05;;;7.10;99.90;;;;;;5068716;28;20228;-71
2023/10/20 11:52:39;;;;;;;4.13;2.53;;;7.10;99.90;;;;;;5072288;28;20260;-73
2023/10/20 11:55:08;;;;;;;2.85;2.65;;;7.00;99.90;;;;;;5069037;28;20663;-71
2023/10/20 11:57:36;;;;;;;3.25;2.15;;;7.00;99.90;;;;;;5072558;28;20229;-73
2023/10/20 12:00:07;;;;;;;2.42;2.30;;;7.10;99.90;;;;;;5072419;28;20200;-74
2023/10/20 12:02:34;;;;;;;2.92;2.30;;;7.10;99.90;;;;;;5072131;28;20214;-74
2023/10/20 12:05:01;;;;;;;5.85;2.65;;;7.10;99.90;;;;;;5072681;28;20622;-76
2023/10/20 12:07:29;;;;;;;2.75;2.55;;;7.10;99.90;;;;;;5072551;28;20222;-73
2023/10/20 12:09:57;;;;;;;2.17;2.05;;;7.10;99.90;;;;;;5072168;28;20314;-74
2023/10/20 12:12:24;;;;;;;2.53;2.33;;;7.10;99.90;;;;;;5071079;28;20206;-78
2023/10/20 12:14:51;;;;;;;2.10;1.77;;;7.10;99.90;;;;;;5070850;28;20317;-78
2023/10/20 12:17:19;;;;;;;2.38;2.13;;;7.20;99.90;;;;;;5072803;28;20229;-74
2023/10/20 12:19:46;;;;;;;4.38;2.17;;;7.10;99.90;;;;;;5071729;28;20247;-71
2023/10/20 12:22:13;;;;;;;1.63;1.48;;;7.10;99.90;;;;;;5071883;28;20786;-75
2023/10/20 12:24:40;;;;;;;2.20;1.90;;;7.10;99.90;;;;;;5070982;28;20205;-73
2023/10/20 12:27:11;;;;;;;3.22;2.38;;;7.10;99.90;;;;;;5072208;28;20568;-72
2023/10/20 12:29:38;;;;;;;2.33;2.03;;;7.10;99.90;;;;;;5070330;28;20622;-74
2023/10/20 12:32:07;;;;;;;2.63;2.25;;;7.10;99.90;;;;;;5071693;28;20223;-75
2023/10/20 12:34:36;;;;;;;1.45;1.35;;;7.10;99.90;;;;;;5069261;28;20634;-72
2023/10/20 12:37:03;;;;;;;2.83;2.20;;;7.10;99.90;;;;;;5067008;28;20601;-73
2023/10/20 12:39:31;;;;;;;10.85;2.85;;;7.10;99.90;;;;;;5064928;28;20211;-74
2023/10/20 12:42:02;;;;;;;2.05;1.85;;;7.10;99.90;;;;;;5064840;28;20260;-71
2023/10/20 12:44:30;;;;;;;2.45;2.17;;;7.10;99.90;;;;;;5071825;28;20233;-73
2023/10/20 12:46:57;;;;;;;3.13;2.40;;;7.20;99.90;;;;;;5071883;28;20277;-74
2023/10/20 12:49:24;;;;;;;2.45;1.95;;;7.10;99.90;;;;;;5067458;28;20202;-71
2023/10/20 12:51:51;;;;;;;2.35;2.10;;;7.20;99.90;;;;;;5072076;28;20708;-72
2023/10/20 12:54:19;;;;;;;2.75;2.55;;;7.20;99.90;;;;;;5071048;28;20197;-74
2023/10/20 12:56:46;;;;;;;1.90;1.70;;;7.20;99.90;;;;;;5068098;28;20322;-77
2023/10/20 12:59:13;;;;;;;3.88;1.92;;;7.20;99.90;;;;;;5066427;28;20209;-73
2023/10/20 13:01:41;;;;;;;2.85;2.55;;;7.30;99.90;;;;;;5068879;28;20632;-75
2023/10/20 13:04:08;;;;;;;1.70;1.60;;;7.30;99.90;;;;;;5073075;28;20202;-74
2023/10/20 13:06:35;;;;;;;2.08;1.90;;;7.20;99.90;;;;;;5071307;28;20226;-74
2023/10/20 13:09:03;;;;;;;2.42;2.22;;;7.30;99.90;;;;;;5070839;28;20296;-75
2023/10/20 13:11:29;;;;;;;2.25;2.05;;;7.30;99.90;;;;;;5071501;28;20261;-72
2023/10/20 13:13:58;;;;;;;5.03;2.17;;;7.30;99.90;;;;;;5070680;28;20206;-75
2023/10/20 13:16:26;;;;;;;2.35;1.90;;;7.30;99.90;;;;;;5071841;28;20206;-73
2023/10/20 13:18:55;;;;;;;2.22;1.85;;;7.30;99.90;;;;;;5071649;28;20229;-72
2023/10/20 13:21:24;;;;;;;2.65;1.77;;;7.30;99.90;;;;;;5071359;28;20209;-73
2023/10/20 13:23:53;;;;;;;1.75;1.27;;;7.30;99.90;;;;;;5064688;28;20648;-74
2023/10/20 13:26:20;;;;;;;2.75;1.95;;;7.30;99.90;;;;;;5070419;28;20195;-72